createdAt,value
2017-08-04T00:00:10.129Z,967.67
2017-08-04T00:01:20.094Z,967.69
2017-08-04T00:02:30.674Z,967.67
2017-08-04T00:03:40.948Z,967.67
2017-08-04T00:04:51.229Z,967.66
2017-08-04T00:06:01.185Z,967.68
2017-08-04T00:07:11.143Z,967.63
2017-08-04T00:08:21.097Z,967.61
2017-08-04T00:09:31.054Z,967.62
2017-08-04T00:10:41.007Z,967.61
2017-08-04T00:11:50.961Z,967.61
2017-08-04T00:13:00.600Z,967.59
2017-08-04T00:14:10.871Z,967.56
2017-08-04T00:15:21.142Z,967.51
2017-08-04T00:16:31.105Z,967.51
2017-08-04T00:17:40.757Z,967.5
2017-08-04T00:18:51.031Z,967.51
2017-08-04T00:20:01.308Z,967.5
2017-08-04T00:21:11.581Z,967.42
2017-08-04T00:22:21.869Z,967.42
2017-08-04T00:23:31.823Z,967.43
2017-08-04T00:24:42.091Z,967.41
2017-08-04T00:25:52.369Z,967.33
2017-08-04T00:27:02.326Z,967.38
2017-08-04T00:28:12.594Z,967.38
2017-08-04T00:29:22.551Z,967.35
2017-08-04T00:30:32.512Z,967.32
2017-08-04T00:31:42.779Z,967.34
2017-08-04T00:32:53.045Z,967.3
2017-08-04T00:34:03.320Z,967.25
2017-08-04T00:35:13.274Z,967.27
2017-08-04T00:36:23.544Z,967.23
2017-08-04T00:37:33.494Z,967.24
2017-08-04T00:38:43.456Z,967.24
2017-08-04T00:39:53.722Z,967.19
2017-08-04T00:41:03.676Z,967.17
2017-08-04T00:42:13.946Z,967.17
2017-08-04T00:43:24.215Z,967.12
2017-08-04T00:44:34.486Z,967.15
2017-08-04T00:45:44.446Z,967.1
2017-08-04T00:46:54.398Z,967.08
2017-08-04T00:48:04.665Z,967.14
2017-08-04T00:49:14.935Z,967.14
2017-08-04T00:50:25.207Z,967.09
2017-08-04T00:51:35.169Z,967.08
2017-08-04T00:52:45.438Z,967.04
2017-08-04T00:53:55.388Z,967.06
2017-08-04T00:55:05.346Z,967.04
2017-08-04T00:56:15.623Z,967.08
2017-08-04T00:57:25.891Z,967.08
2017-08-04T00:58:36.158Z,967.03
2017-08-04T00:59:46.426Z,967
2017-08-04T01:00:56.385Z,966.99
2017-08-04T01:02:06.648Z,967.01
2017-08-04T01:03:16.918Z,966.99
2017-08-04T01:04:27.186Z,966.97
2017-08-04T01:05:37.456Z,966.91
2017-08-04T01:06:47.723Z,966.92
2017-08-04T01:07:57.993Z,966.91
2017-08-04T01:09:07.941Z,966.94
2017-08-04T01:10:17.595Z,966.97
2017-08-04T01:11:27.868Z,966.92
2017-08-04T01:12:38.137Z,966.91
2017-08-04T01:13:48.407Z,966.92
2017-08-04T01:14:58.363Z,966.91
2017-08-04T01:16:08.005Z,966.87
2017-08-04T01:17:18.275Z,966.86
2017-08-04T01:18:28.542Z,966.85
2017-08-04T01:19:38.492Z,966.87
2017-08-04T01:20:48.757Z,966.84
2017-08-04T01:21:59.026Z,966.77
2017-08-04T01:23:08.983Z,966.76
2017-08-04T01:24:19.259Z,966.85
2017-08-04T01:25:29.217Z,966.8
2017-08-04T01:26:39.494Z,966.76
2017-08-04T01:27:49.454Z,966.82
2017-08-04T01:28:59.725Z,966.73
2017-08-04T01:30:09.683Z,966.72
2017-08-04T01:31:19.955Z,966.75
2017-08-04T01:32:30.248Z,966.74
2017-08-04T01:33:40.204Z,966.63
2017-08-04T01:34:50.471Z,966.66
2017-08-04T01:36:00.742Z,966.65
2017-08-04T01:37:10.719Z,966.62
2017-08-04T01:38:20.983Z,966.68
2017-08-04T01:39:31.259Z,966.6
2017-08-04T01:40:41.532Z,966.65
2017-08-04T01:41:51.492Z,966.65
2017-08-04T01:43:01.773Z,966.64
2017-08-04T01:44:12.040Z,966.63
2017-08-04T01:45:22.003Z,966.59
2017-08-04T01:46:32.273Z,966.6
2017-08-04T01:47:42.545Z,966.58
2017-08-04T01:48:52.810Z,966.58
2017-08-04T01:50:03.084Z,966.56
2017-08-04T01:51:13.044Z,966.51
2017-08-04T01:52:23.337Z,966.45
2017-08-04T01:53:33.293Z,966.5
2017-08-04T01:54:43.569Z,966.43
2017-08-04T01:55:53.525Z,966.47
2017-08-04T01:57:03.792Z,966.5
2017-08-04T01:58:13.741Z,966.44
2017-08-04T01:59:24.010Z,966.41
2017-08-04T02:00:34.282Z,966.38
2017-08-04T02:01:44.555Z,966.38
2017-08-04T02:02:54.839Z,966.33
2017-08-04T02:04:05.128Z,966.34
2017-08-04T02:05:15.395Z,966.31
2017-08-04T02:06:25.346Z,966.32
2017-08-04T02:07:35.613Z,966.31
2017-08-04T02:08:45.890Z,966.29
2017-08-04T02:09:56.162Z,966.31
2017-08-04T02:11:06.125Z,966.28
2017-08-04T02:12:16.082Z,966.24
2017-08-04T02:13:26.351Z,966.21
2017-08-04T02:14:36.306Z,966.23
2017-08-04T02:15:46.572Z,966.2
2017-08-04T02:16:56.947Z,966.24
2017-08-04T02:18:07.218Z,966.19
2017-08-04T02:19:17.171Z,966.23
2017-08-04T02:20:27.447Z,966.18
2017-08-04T02:21:37.739Z,966.18
2017-08-04T02:22:47.704Z,966.17
2017-08-04T02:23:57.969Z,966.16
2017-08-04T02:25:07.930Z,966.15
2017-08-04T02:26:18.197Z,966.1
2017-08-04T02:27:28.466Z,966.11
2017-08-04T02:28:38.428Z,966.11
2017-08-04T02:29:48.703Z,966.1
2017-08-04T02:30:58.655Z,966.07
2017-08-04T02:32:08.928Z,966.07
2017-08-04T02:33:18.569Z,966.1
2017-08-04T02:34:28.838Z,966.04
2017-08-04T02:35:39.108Z,966.09
2017-08-04T02:36:49.384Z,966.08
2017-08-04T02:37:59.671Z,966.07
2017-08-04T02:39:09.945Z,966.04
2017-08-04T02:40:20.223Z,966.04
2017-08-04T02:41:30.186Z,966.07
2017-08-04T02:42:40.460Z,966.06
2017-08-04T02:43:50.417Z,966.08
2017-08-04T02:45:00.689Z,966.04
2017-08-04T02:46:10.659Z,966.05
2017-08-04T02:47:20.930Z,966.01
2017-08-04T02:48:31.201Z,966.03
2017-08-04T02:49:41.167Z,965.93
2017-08-04T02:50:51.445Z,965.96
2017-08-04T02:52:01.715Z,965.98
2017-08-04T02:53:11.987Z,965.96
2017-08-04T02:54:22.267Z,965.94
2017-08-04T02:55:32.220Z,965.97
2017-08-04T02:56:42.492Z,965.95
2017-08-04T02:57:54.772Z,965.95
2017-08-04T02:59:04.744Z,965.98
2017-08-04T03:00:15.022Z,965.9
2017-08-04T03:01:25.292Z,965.95
2017-08-04T03:02:35.563Z,965.92
2017-08-04T03:03:45.836Z,965.94
2017-08-04T03:04:56.104Z,965.92
2017-08-04T03:06:06.058Z,965.94
2017-08-04T03:07:15.695Z,965.95
2017-08-04T03:08:25.964Z,965.88
2017-08-04T03:09:35.917Z,965.89
2017-08-04T03:10:45.872Z,965.88
2017-08-04T03:11:56.144Z,965.87
2017-08-04T03:13:06.421Z,965.89
2017-08-04T03:14:16.382Z,965.85
2017-08-04T03:15:28.650Z,965.84
2017-08-04T03:16:38.609Z,965.81
2017-08-04T03:17:48.570Z,965.76
2017-08-04T03:18:58.525Z,965.8
2017-08-04T03:20:08.797Z,965.8
2017-08-04T03:21:18.757Z,965.81
2017-08-04T03:22:29.028Z,965.74
2017-08-04T03:23:39.312Z,965.74
2017-08-04T03:24:49.579Z,965.78
2017-08-04T03:25:59.856Z,965.81
2017-08-04T03:27:10.134Z,965.79
2017-08-04T03:28:20.089Z,965.76
2017-08-04T03:29:30.358Z,965.73
2017-08-04T03:30:40.634Z,965.68
2017-08-04T03:31:50.911Z,965.74
2017-08-04T03:33:01.116Z,965.67
2017-08-04T03:34:11.074Z,965.66
2017-08-04T03:35:21.347Z,965.65
2017-08-04T03:36:31.618Z,965.66
2017-08-04T03:37:41.927Z,965.62
2017-08-04T03:38:52.196Z,965.63
2017-08-04T03:40:02.476Z,965.65
2017-08-04T03:41:12.440Z,965.63
2017-08-04T03:42:22.708Z,965.6
2017-08-04T03:43:32.661Z,965.61
2017-08-04T03:44:42.932Z,965.6
2017-08-04T03:45:52.885Z,965.62
2017-08-04T03:47:03.155Z,965.63
2017-08-04T03:48:13.424Z,965.61
2017-08-04T03:49:23.693Z,965.6
2017-08-04T03:50:33.656Z,965.57
2017-08-04T03:51:43.610Z,965.54
2017-08-04T03:52:53.885Z,965.56
2017-08-04T03:54:03.843Z,965.57
2017-08-04T03:55:14.112Z,965.52
2017-08-04T03:56:24.382Z,965.53
2017-08-04T03:57:34.340Z,965.54
2017-08-04T03:58:44.294Z,965.52
2017-08-04T03:59:54.565Z,965.53
2017-08-04T04:01:04.840Z,965.48
2017-08-04T04:02:15.127Z,965.5
2017-08-04T04:03:25.399Z,965.49
2017-08-04T04:04:35.353Z,965.51
2017-08-04T04:05:45.630Z,965.44
2017-08-04T04:06:55.593Z,965.5
2017-08-04T04:08:05.549Z,965.51
2017-08-04T04:09:15.820Z,965.46
2017-08-04T04:10:25.777Z,965.47
2017-08-04T04:11:36.058Z,965.49
2017-08-04T04:12:46.010Z,965.46
2017-08-04T04:13:55.657Z,965.47
2017-08-04T04:15:05.299Z,965.44
2017-08-04T04:16:15.570Z,965.45
2017-08-04T04:17:25.525Z,965.48
2017-08-04T04:18:35.795Z,965.46
2017-08-04T04:19:46.066Z,965.46
2017-08-04T04:20:56.017Z,965.45
2017-08-04T04:22:05.978Z,965.43
2017-08-04T04:23:15.936Z,965.47
2017-08-04T04:24:26.206Z,965.41
2017-08-04T04:25:36.470Z,965.43
2017-08-04T04:26:46.423Z,965.44
2017-08-04T04:27:56.692Z,965.45
2017-08-04T04:29:06.650Z,965.43
2017-08-04T04:30:16.920Z,965.41
2017-08-04T04:31:26.875Z,965.36
2017-08-04T04:32:37.146Z,965.38
2017-08-04T04:33:46.784Z,965.38
2017-08-04T04:34:57.086Z,965.36
2017-08-04T04:36:07.358Z,965.34
2017-08-04T04:37:17.003Z,965.31
2017-08-04T04:38:26.963Z,965.33
2017-08-04T04:39:36.919Z,965.37
2017-08-04T04:40:47.206Z,965.34
2017-08-04T04:41:57.474Z,965.33
2017-08-04T04:43:07.429Z,965.34
2017-08-04T04:44:17.697Z,965.36
2017-08-04T04:45:27.965Z,965.34
2017-08-04T04:46:37.618Z,965.32
2017-08-04T04:47:47.255Z,965.35
2017-08-04T04:48:57.525Z,965.31
2017-08-04T04:50:07.480Z,965.29
2017-08-04T04:51:17.753Z,965.29
2017-08-04T04:52:27.727Z,965.28
2017-08-04T04:53:38.001Z,965.27
2017-08-04T04:54:48.272Z,965.24
2017-08-04T04:55:58.222Z,965.22
2017-08-04T04:57:08.178Z,965.22
2017-08-04T04:58:18.447Z,965.22
2017-08-04T04:59:28.725Z,965.21
2017-08-04T05:00:38.991Z,965.23
2017-08-04T05:01:49.261Z,965.23
2017-08-04T05:02:59.535Z,965.25
2017-08-04T05:04:09.809Z,965.25
2017-08-04T05:05:20.081Z,965.26
2017-08-04T05:06:30.347Z,965.24
2017-08-04T05:07:40.617Z,965.28
2017-08-04T05:08:50.898Z,965.27
2017-08-04T05:10:00.851Z,965.26
2017-08-04T05:11:11.148Z,965.28
2017-08-04T05:12:21.428Z,965.24
2017-08-04T05:13:31.694Z,965.21
2017-08-04T05:14:41.972Z,965.24
2017-08-04T05:15:52.241Z,965.24
2017-08-04T05:17:02.208Z,965.2
2017-08-04T05:18:12.478Z,965.2
2017-08-04T05:19:22.752Z,965.17
2017-08-04T05:20:33.031Z,965.18
2017-08-04T05:21:42.984Z,965.19
2017-08-04T05:22:52.936Z,965.21
2017-08-04T05:24:03.206Z,965.21
2017-08-04T05:25:13.476Z,965.23
2017-08-04T05:26:23.431Z,965.19
2017-08-04T05:27:33.699Z,965.2
2017-08-04T05:28:43.671Z,965.18
2017-08-04T05:29:53.630Z,965.19
2017-08-04T05:31:03.909Z,965.17
2017-08-04T05:32:13.866Z,965.17
2017-08-04T05:33:24.141Z,965.14
2017-08-04T05:34:34.410Z,965.13
2017-08-04T05:35:44.683Z,965.15
2017-08-04T05:36:54.953Z,965.16
2017-08-04T05:38:05.233Z,965.17
2017-08-04T05:39:14.885Z,965.19
2017-08-04T05:40:25.158Z,965.2
2017-08-04T05:41:35.430Z,965.16
2017-08-04T05:42:45.385Z,965.16
2017-08-04T05:43:55.692Z,965.13
2017-08-04T05:45:05.963Z,965.12
2017-08-04T05:46:15.920Z,965.12
2017-08-04T05:47:25.875Z,965.13
2017-08-04T05:48:35.832Z,965.14
2017-08-04T05:49:46.105Z,965.13
2017-08-04T05:50:56.376Z,965.12
2017-08-04T05:52:06.655Z,965.15
2017-08-04T05:53:16.934Z,965.16
2017-08-04T05:54:27.205Z,965.15
2017-08-04T05:55:37.166Z,965.18
2017-08-04T05:56:47.438Z,965.18
2017-08-04T05:57:57.718Z,965.13
2017-08-04T05:59:07.679Z,965.13
2017-08-04T06:00:17.649Z,965.14
2017-08-04T06:01:27.924Z,965.11
2017-08-04T06:02:38.196Z,965.1
2017-08-04T06:03:48.504Z,965.15
2017-08-04T06:04:58.459Z,965.1
2017-08-04T06:06:08.731Z,965.11
2017-08-04T06:07:19.014Z,965.09
2017-08-04T06:08:29.282Z,965.08
2017-08-04T06:09:39.559Z,965.14
2017-08-04T06:10:49.209Z,965.09
2017-08-04T06:11:58.851Z,965.11
2017-08-04T06:13:08.820Z,965.09
2017-08-04T06:14:19.099Z,965.1
2017-08-04T06:15:29.062Z,965.1
2017-08-04T06:16:39.330Z,965.1
2017-08-04T06:17:49.603Z,965.09
2017-08-04T06:18:59.260Z,965.11
2017-08-04T06:20:09.552Z,965.13
2017-08-04T06:21:19.834Z,965.07
2017-08-04T06:22:29.796Z,965.06
2017-08-04T06:23:39.453Z,965.11
2017-08-04T06:24:49.726Z,965.09
2017-08-04T06:25:59.680Z,965.09
2017-08-04T06:27:09.643Z,965.09
2017-08-04T06:28:19.599Z,965.11
2017-08-04T06:29:29.870Z,965.13
2017-08-04T06:30:40.149Z,965.17
2017-08-04T06:31:50.430Z,965.14
2017-08-04T06:33:00.704Z,965.16
2017-08-04T06:34:10.661Z,965.13
2017-08-04T06:35:20.620Z,965.14
2017-08-04T06:36:30.892Z,965.11
2017-08-04T06:37:41.177Z,965.1
2017-08-04T06:38:51.450Z,965.12
2017-08-04T06:40:01.726Z,965.07
2017-08-04T06:41:11.057Z,965.08
2017-08-04T06:42:21.017Z,965.07
2017-08-04T06:43:31.289Z,965.09
2017-08-04T06:44:41.567Z,965.08
2017-08-04T06:45:51.839Z,965.09
2017-08-04T06:47:02.111Z,965.09
2017-08-04T06:48:12.385Z,965.08
2017-08-04T06:49:22.031Z,965.11
2017-08-04T06:50:32.315Z,965.05
2017-08-04T06:51:42.588Z,965.08
2017-08-04T06:52:52.862Z,965.08
2017-08-04T06:54:03.138Z,965.09
2017-08-04T06:55:13.091Z,965.1
2017-08-04T06:56:22.733Z,965.08
2017-08-04T06:57:32.691Z,965.05
2017-08-04T06:58:42.964Z,965.05
2017-08-04T06:59:52.927Z,965.06
2017-08-04T07:01:03.204Z,965.03
2017-08-04T07:02:12.855Z,965.08
2017-08-04T07:03:23.136Z,965.03
2017-08-04T07:04:33.407Z,965.03
2017-08-04T07:05:43.063Z,965.03
2017-08-04T07:06:52.705Z,964.99
2017-08-04T07:08:02.977Z,965.02
2017-08-04T07:09:12.627Z,965.04
2017-08-04T07:10:22.907Z,965.01
2017-08-04T07:11:32.550Z,964.99
2017-08-04T07:12:42.514Z,965.02
2017-08-04T07:13:52.160Z,965.05
2017-08-04T07:15:02.126Z,965.04
2017-08-04T07:16:12.401Z,965.03
2017-08-04T07:17:22.680Z,965.03
2017-08-04T07:18:32.676Z,965.04
2017-08-04T07:19:42.951Z,965.04
2017-08-04T07:20:53.223Z,965.02
2017-08-04T07:22:03.501Z,965.02
2017-08-04T07:23:13.464Z,965.08
2017-08-04T07:24:23.741Z,965.04
2017-08-04T07:25:34.011Z,965.04
2017-08-04T07:26:44.278Z,965.01
2017-08-04T07:27:53.923Z,965.03
2017-08-04T07:29:03.878Z,965.03
2017-08-04T07:30:14.158Z,964.99
2017-08-04T07:31:24.444Z,964.97
2017-08-04T07:32:34.092Z,964.98
2017-08-04T07:33:44.365Z,964.97
2017-08-04T07:34:54.666Z,965
2017-08-04T07:36:04.631Z,965
2017-08-04T07:37:14.905Z,965.02
2017-08-04T07:38:25.178Z,965.01
2017-08-04T07:39:35.137Z,965.03
2017-08-04T07:40:45.408Z,965
2017-08-04T07:41:55.683Z,964.97
2017-08-04T07:43:05.961Z,964.94
2017-08-04T07:44:15.920Z,964.99
2017-08-04T07:45:26.202Z,964.96
2017-08-04T07:46:36.482Z,964.96
2017-08-04T07:47:46.758Z,964.96
2017-08-04T07:48:57.057Z,964.94
2017-08-04T07:50:07.337Z,964.96
2017-08-04T07:51:17.316Z,964.97
2017-08-04T07:52:27.156Z,964.98
2017-08-04T07:53:37.253Z,964.98
2017-08-04T07:54:47.638Z,964.94
2017-08-04T07:55:59.507Z,964.95
2017-08-04T07:57:09.980Z,964.98
2017-08-04T07:58:20.432Z,964.94
2017-08-04T07:59:30.080Z,964.96
2017-08-04T08:00:40.357Z,964.94
2017-08-04T08:01:50.634Z,964.93
2017-08-04T08:03:00.909Z,964.91
2017-08-04T08:04:10.874Z,964.95
2017-08-04T08:05:20.841Z,964.96
2017-08-04T08:06:31.121Z,964.98
2017-08-04T08:07:41.116Z,964.98
2017-08-04T08:08:51.077Z,965.02
2017-08-04T08:10:01.356Z,964.97
2017-08-04T08:11:11.316Z,964.97
2017-08-04T08:12:21.594Z,964.97
2017-08-04T08:13:31.873Z,964.99
2017-08-04T08:14:41.846Z,965
2017-08-04T08:15:52.123Z,965
2017-08-04T08:17:02.081Z,965.02
2017-08-04T08:18:12.361Z,965
2017-08-04T08:19:22.648Z,964.98
2017-08-04T08:20:32.927Z,964.98
2017-08-04T08:21:43.206Z,964.98
2017-08-04T08:22:53.483Z,964.97
2017-08-04T08:24:03.758Z,964.93
2017-08-04T08:25:14.033Z,964.92
2017-08-04T08:26:24.308Z,964.93
2017-08-04T08:27:34.270Z,964.93
2017-08-04T08:28:44.539Z,964.92
2017-08-04T08:29:54.181Z,964.89
2017-08-04T08:31:06.446Z,964.9
2017-08-04T08:32:16.722Z,964.89
2017-08-04T08:33:26.995Z,964.9
2017-08-04T08:34:37.270Z,964.91
2017-08-04T08:35:47.239Z,964.89
2017-08-04T08:36:57.513Z,964.98
2017-08-04T08:38:07.793Z,964.96
2017-08-04T08:39:18.081Z,964.94
2017-08-04T08:40:28.363Z,964.95
2017-08-04T08:41:38.330Z,964.97
2017-08-04T08:42:48.294Z,964.95
2017-08-04T08:43:58.573Z,964.96
2017-08-04T08:45:08.533Z,964.96
2017-08-04T08:46:18.505Z,964.92
2017-08-04T08:47:28.466Z,964.93
2017-08-04T08:48:38.113Z,964.97
2017-08-04T08:49:48.395Z,965
2017-08-04T08:50:58.355Z,964.98
2017-08-04T08:52:08.326Z,964.99
2017-08-04T08:53:18.287Z,965
2017-08-04T08:54:27.942Z,964.98
2017-08-04T08:55:38.214Z,964.99
2017-08-04T08:56:48.175Z,964.98
2017-08-04T08:57:58.131Z,964.96
2017-08-04T08:59:08.098Z,964.97
2017-08-04T09:00:18.383Z,964.95
2017-08-04T09:01:28.031Z,964.91
2017-08-04T09:02:37.999Z,964.89
2017-08-04T09:03:47.961Z,964.89
2017-08-04T09:04:58.240Z,964.87
2017-08-04T09:06:08.587Z,964.89
2017-08-04T09:07:18.557Z,964.93
2017-08-04T09:08:28.841Z,964.89
2017-08-04T09:09:39.121Z,964.92
2017-08-04T09:10:49.399Z,964.89
2017-08-04T09:11:59.045Z,964.89
2017-08-04T09:13:09.328Z,964.88
2017-08-04T09:14:19.599Z,964.86
2017-08-04T09:15:29.562Z,964.85
2017-08-04T09:16:39.525Z,964.86
2017-08-04T09:17:49.499Z,964.86
2017-08-04T09:18:59.458Z,964.89
2017-08-04T09:20:09.737Z,964.9
2017-08-04T09:21:20.009Z,964.9
2017-08-04T09:22:30.283Z,964.93
2017-08-04T09:23:40.559Z,964.9
2017-08-04T09:24:50.832Z,964.91
2017-08-04T09:26:00.794Z,964.88
2017-08-04T09:27:10.753Z,964.86
2017-08-04T09:28:21.038Z,964.85
2017-08-04T09:29:31.341Z,964.89
2017-08-04T09:30:41.619Z,964.88
2017-08-04T09:31:51.894Z,964.87
2017-08-04T09:33:01.883Z,964.82
2017-08-04T09:34:12.163Z,964.85
2017-08-04T09:35:22.125Z,964.86
2017-08-04T09:36:32.401Z,964.86
2017-08-04T09:37:42.681Z,964.84
2017-08-04T09:38:52.955Z,964.83
2017-08-04T09:40:03.242Z,964.82
2017-08-04T09:41:12.889Z,964.84
2017-08-04T09:42:23.166Z,964.84
2017-08-04T09:43:33.155Z,964.83
2017-08-04T09:44:42.796Z,964.86
2017-08-04T09:45:52.759Z,964.88
2017-08-04T09:47:02.714Z,964.89
2017-08-04T09:48:12.989Z,964.92
2017-08-04T09:49:22.953Z,964.9
2017-08-04T09:50:33.228Z,964.86
2017-08-04T09:51:42.872Z,964.89
2017-08-04T09:52:53.149Z,964.92
2017-08-04T09:54:03.420Z,964.96
2017-08-04T09:55:13.380Z,964.94
2017-08-04T09:56:23.656Z,964.97
2017-08-04T09:57:33.621Z,964.98
2017-08-04T09:58:43.896Z,965.03
2017-08-04T09:59:54.169Z,964.98
2017-08-04T10:01:04.146Z,965
2017-08-04T10:02:14.425Z,965.03
2017-08-04T10:03:24.388Z,964.96
2017-08-04T10:04:34.353Z,964.96
2017-08-04T10:05:44.311Z,964.98
2017-08-04T10:06:54.593Z,964.98
2017-08-04T10:08:04.867Z,964.96
2017-08-04T10:09:14.825Z,964.97
2017-08-04T10:10:24.787Z,964.92
2017-08-04T10:11:35.073Z,964.95
2017-08-04T10:12:45.360Z,964.93
2017-08-04T10:13:55.644Z,964.95
2017-08-04T10:15:05.602Z,964.97
2017-08-04T10:16:15.253Z,964.95
2017-08-04T10:17:25.532Z,964.95
2017-08-04T10:18:35.813Z,964.98
2017-08-04T10:19:46.083Z,964.96
2017-08-04T10:20:56.049Z,964.98
2017-08-04T10:22:06.024Z,964.97
2017-08-04T10:23:16.311Z,965.02
2017-08-04T10:24:26.278Z,965.01
2017-08-04T10:25:36.552Z,965.02
2017-08-04T10:26:46.536Z,965
2017-08-04T10:27:56.810Z,964.98
2017-08-04T10:29:06.457Z,964.99
2017-08-04T10:30:16.739Z,964.95
2017-08-04T10:31:26.699Z,964.95
2017-08-04T10:32:36.971Z,964.94
2017-08-04T10:33:46.941Z,964.94
2017-08-04T10:34:57.221Z,964.92
2017-08-04T10:36:07.501Z,964.98
2017-08-04T10:37:17.459Z,964.96
2017-08-04T10:38:27.736Z,964.93
2017-08-04T10:39:38.010Z,964.92
2017-08-04T10:40:47.656Z,964.91
2017-08-04T10:41:57.614Z,964.87
2017-08-04T10:43:07.887Z,964.85
2017-08-04T10:44:17.222Z,964.86
2017-08-04T10:45:27.179Z,964.88
2017-08-04T10:46:37.457Z,964.88
2017-08-04T10:47:47.754Z,964.87
2017-08-04T10:48:57.711Z,964.88
2017-08-04T10:50:07.989Z,964.88
2017-08-04T10:51:18.266Z,964.88
2017-08-04T10:52:28.233Z,964.88
2017-08-04T10:53:38.506Z,964.85
2017-08-04T10:54:48.774Z,964.82
2017-08-04T10:55:58.741Z,964.83
2017-08-04T10:57:08.700Z,964.82
2017-08-04T10:58:18.655Z,964.84
2017-08-04T10:59:28.633Z,964.87
2017-08-04T11:00:38.596Z,964.88
2017-08-04T11:01:48.565Z,964.81
2017-08-04T11:02:58.527Z,964.82
2017-08-04T11:04:08.805Z,964.83
2017-08-04T11:05:19.089Z,964.83
2017-08-04T11:06:29.062Z,964.8
2017-08-04T11:07:39.343Z,964.8
2017-08-04T11:08:49.621Z,964.81
2017-08-04T11:09:59.894Z,964.84
2017-08-04T11:11:09.859Z,964.85
2017-08-04T11:12:19.832Z,964.86
2017-08-04T11:13:29.795Z,964.85
2017-08-04T11:14:40.071Z,964.88
2017-08-04T11:15:50.357Z,964.91
2017-08-04T11:17:00.631Z,964.82
2017-08-04T11:18:10.597Z,964.84
2017-08-04T11:19:20.877Z,964.8
2017-08-04T11:20:31.151Z,964.83
2017-08-04T11:21:41.127Z,964.84
2017-08-04T11:22:51.405Z,964.84
2017-08-04T11:24:01.685Z,964.83
2017-08-04T11:25:11.649Z,964.85
2017-08-04T11:26:21.925Z,964.8
2017-08-04T11:27:32.204Z,964.84
2017-08-04T11:28:42.174Z,964.85
2017-08-04T11:29:52.451Z,964.86
2017-08-04T11:31:02.117Z,964.85
2017-08-04T11:32:12.402Z,964.79
2017-08-04T11:33:22.060Z,964.83
2017-08-04T11:34:32.334Z,964.8
2017-08-04T11:35:42.608Z,964.84
2017-08-04T11:36:52.580Z,964.84
2017-08-04T11:38:02.853Z,964.84
2017-08-04T11:39:13.139Z,964.85
2017-08-04T11:40:23.414Z,964.86
2017-08-04T11:41:33.695Z,964.82
2017-08-04T11:42:43.972Z,964.83
2017-08-04T11:43:53.621Z,964.83
2017-08-04T11:45:03.898Z,964.82
2017-08-04T11:46:13.868Z,964.81
2017-08-04T11:47:24.144Z,964.83
2017-08-04T11:48:34.418Z,964.79
2017-08-04T11:49:44.700Z,964.8
2017-08-04T11:50:54.657Z,964.78
2017-08-04T11:52:04.933Z,964.78
2017-08-04T11:53:14.899Z,964.77
2017-08-04T11:54:25.174Z,964.79
2017-08-04T11:55:35.132Z,964.76
2017-08-04T11:56:45.099Z,964.77
2017-08-04T11:57:55.069Z,964.78
2017-08-04T11:59:05.028Z,964.76
2017-08-04T12:00:14.993Z,964.75
2017-08-04T12:01:25.107Z,964.73
2017-08-04T12:02:35.398Z,964.71
2017-08-04T12:03:45.362Z,964.71
2017-08-04T12:04:55.329Z,964.72
2017-08-04T12:06:05.608Z,964.69
2017-08-04T12:07:15.578Z,964.72
2017-08-04T12:08:25.854Z,964.72
2017-08-04T12:09:36.122Z,964.73
2017-08-04T12:10:46.091Z,964.69
2017-08-04T12:11:56.369Z,964.67
2017-08-04T12:13:06.644Z,964.64
2017-08-04T12:14:16.923Z,964.67
2017-08-04T12:15:26.883Z,964.66
2017-08-04T12:16:37.163Z,964.69
2017-08-04T12:17:47.457Z,964.66
2017-08-04T12:18:57.422Z,964.64
2017-08-04T12:20:07.699Z,964.64
2017-08-04T12:21:17.975Z,964.68
2017-08-04T12:22:28.255Z,964.69
2017-08-04T12:23:38.215Z,964.71
2017-08-04T12:24:48.493Z,964.72
2017-08-04T12:25:58.774Z,964.7
2017-08-04T12:27:09.053Z,964.72
2017-08-04T12:28:18.703Z,964.72
2017-08-04T12:29:28.670Z,964.71
2017-08-04T12:30:38.951Z,964.73
2017-08-04T12:31:49.230Z,964.75
2017-08-04T12:32:59.504Z,964.78
2017-08-04T12:34:09.781Z,964.74
2017-08-04T12:35:20.060Z,964.79
2017-08-04T12:36:32.335Z,964.79
2017-08-04T12:37:42.620Z,964.76
2017-08-04T12:38:52.896Z,964.73
2017-08-04T12:40:02.873Z,964.71
2017-08-04T12:41:12.526Z,964.71
2017-08-04T12:42:22.494Z,964.67
2017-08-04T12:43:32.769Z,964.66
2017-08-04T12:44:43.052Z,964.7
2017-08-04T12:45:52.704Z,964.64
2017-08-04T12:47:02.665Z,964.66
2017-08-04T12:48:12.624Z,964.65
2017-08-04T12:49:22.598Z,964.68
2017-08-04T12:50:32.565Z,964.7
2017-08-04T12:51:42.857Z,964.67
2017-08-04T12:52:52.816Z,964.68
2017-08-04T12:54:03.093Z,964.67
2017-08-04T12:55:13.375Z,964.71
2017-08-04T12:56:23.334Z,964.69
2017-08-04T12:57:33.615Z,964.69
2017-08-04T12:58:43.579Z,964.7
2017-08-04T12:59:53.877Z,964.7
2017-08-04T13:01:03.527Z,964.71
2017-08-04T13:02:13.487Z,964.73
2017-08-04T13:03:23.762Z,964.73
2017-08-04T13:04:34.034Z,964.73
2017-08-04T13:05:44.308Z,964.74
2017-08-04T13:06:54.582Z,964.74
2017-08-04T13:08:04.545Z,964.75
2017-08-04T13:09:14.504Z,964.76
2017-08-04T13:10:24.783Z,964.73
2017-08-04T13:11:35.054Z,964.67
2017-08-04T13:12:45.321Z,964.65
2017-08-04T13:13:55.281Z,964.66
2017-08-04T13:15:05.579Z,964.66
2017-08-04T13:16:15.856Z,964.67
2017-08-04T13:17:25.817Z,964.68
2017-08-04T13:18:36.090Z,964.69
2017-08-04T13:19:46.051Z,964.72
2017-08-04T13:20:56.330Z,964.74
2017-08-04T13:22:06.624Z,964.8
2017-08-04T13:23:16.580Z,964.79
2017-08-04T13:24:26.542Z,964.79
2017-08-04T13:25:36.814Z,964.7
2017-08-04T13:26:46.778Z,964.67
2017-08-04T13:27:57.056Z,964.65
2017-08-04T13:29:07.318Z,964.68
2017-08-04T13:30:17.273Z,964.7
2017-08-04T13:31:27.231Z,964.69
2017-08-04T13:32:37.509Z,964.68
2017-08-04T13:33:47.468Z,964.69
2017-08-04T13:34:57.739Z,964.64
2017-08-04T13:36:07.712Z,964.64
2017-08-04T13:37:17.983Z,964.63
2017-08-04T13:38:28.257Z,964.64
2017-08-04T13:39:38.213Z,964.67
2017-08-04T13:40:48.176Z,964.69
2017-08-04T13:41:58.128Z,964.7
2017-08-04T13:43:07.774Z,964.68
2017-08-04T13:44:17.731Z,964.66
2017-08-04T13:45:27.686Z,964.66
2017-08-04T13:46:37.956Z,964.67
2017-08-04T13:47:48.233Z,964.69
2017-08-04T13:48:58.498Z,964.62
2017-08-04T13:50:08.771Z,964.64
2017-08-04T13:51:19.047Z,964.68
2017-08-04T13:52:29.006Z,964.63
2017-08-04T13:53:39.287Z,964.66
2017-08-04T13:54:49.558Z,964.62
2017-08-04T13:55:59.517Z,964.66
2017-08-04T13:57:09.787Z,964.7
2017-08-04T13:58:19.429Z,964.7
2017-08-04T13:59:29.073Z,964.73
2017-08-04T14:00:39.344Z,964.73
2017-08-04T14:01:49.614Z,964.71
2017-08-04T14:02:59.912Z,964.77
2017-08-04T14:04:10.187Z,964.73
2017-08-04T14:05:20.458Z,964.76
2017-08-04T14:06:30.449Z,964.7
2017-08-04T14:07:40.719Z,964.67
2017-08-04T14:08:50.988Z,964.71
2017-08-04T14:10:00.943Z,964.69
2017-08-04T14:11:11.223Z,964.71
2017-08-04T14:12:21.565Z,964.66
2017-08-04T14:13:31.831Z,964.63
2017-08-04T14:14:42.103Z,964.63
2017-08-04T14:15:52.059Z,964.64
2017-08-04T14:17:02.330Z,964.63
2017-08-04T14:18:12.624Z,964.64
2017-08-04T14:19:21.956Z,964.68
2017-08-04T14:20:32.232Z,964.71
2017-08-04T14:21:42.499Z,964.77
2017-08-04T14:22:52.765Z,964.8
2017-08-04T14:24:03.033Z,964.84
2017-08-04T14:25:12.675Z,964.81
2017-08-04T14:26:22.317Z,964.81
2017-08-04T14:27:32.591Z,964.78
2017-08-04T14:28:42.878Z,964.81
2017-08-04T14:29:53.149Z,964.77
2017-08-04T14:31:03.430Z,964.75
2017-08-04T14:32:13.696Z,964.79
2017-08-04T14:33:23.656Z,964.91
2017-08-04T14:34:33.931Z,964.78
2017-08-04T14:35:43.898Z,964.77
2017-08-04T14:36:54.174Z,964.81
2017-08-04T14:38:04.458Z,964.82